Airfield :







YOU CAN JOIN US ON...

 
LOGIN :

Register | Disclaimer

   EN    FR    IT 

 









Legend :    VFR   Marginal VFR   IFR   Intensive IFR   Very Intensive IFR
Visi :
Ceiling :
>= 8 km
>= 3000ft
5 to 8 km
1000 to 3000 ft
1500m to 5 km
500 to 1000 ft
800 to 1500m
200 to 500 ft
< 800m
< 200 ft
Symbols :   Thunderstorms  Fog  Heavy snow  Heavy precipitations  Wind > 20 kt






- Airport Elevation : 180 ft
- IATA code : YZV


CYZV - Sept-Iles

CURRENT METAR :
  • 150257Z 09029G37KT 1SM R09/P6000FT/U -SN DRSN VV009 00/M01 A2947 RMK SN8 SLP986

EXPIRED METARs :
  • 150240Z 08022G33KT 1SM R09/5500VP6000FT/U -SN DRSN VV004 M00/M01 A2948 RMK SN8 PRESFR SLP987
  • 150200Z 08024G36KT 3/4SM R09/4500VP6000FT/U -SN DRSN VV004 M00/M01 A2955 RMK SN8 PRESFR SLP011
  • 150100Z 08016G28KT 3/4SM R09/4000V5500FT/D -SN DRSN VV004 M01/M02 A2964 RMK SN8 SLP043
  • 150051Z 08019G28KT 3/4SM R09/5000VP6000FT/D -SN DRSN VV004 M01/M02 A2966 RMK SN8 PRESFR SLP048

TAF TAF CYZV
Valid from the 15 at 00:00 until the 16 at 00:00 UTC


142338Z 1500/1524 09020G30KT 3/4SM -SN VV006
TEMPO 1500/1505 3SM -SNPL OVC010
PROB40 1503/1505 6SM -FZRA BR
FM150500 08025G35KT 21/2SM -RASN -PL OVC006
TEMPO 1505/1509 6SM -FZRA BR OVC012
FM150900 08020G30KT 2SM -RA BR BKN004 OVC008
PROB30 1512/1516 1/2SM -RA FG VV002
BECMG 1516/1518 22025G35KT
FM152000 26020G30KT 11/2SM -SN OVC008 RMK NXT FCST BY 150600Z



MET'MAP, your aeronautical weather chart ! - Copyright ORBIFLY December 2007 - Disclaimer

ORBIFLY MET'MAP TEAM :

Programming & Development : Alexandra Zaïnal
Concept & original design : Baudouin d'Aumeries
Assistance for programming : Marc-Olivier Méhu
Technical & hardware support : Manuel Goepfert

Contact : metmap@orbifly.com




SOURCES & CREDITS :

   NOAA